首页
METAR-TAF:

METAR-TAF

机场 :

弗利辛恩, 荷兰

纬度: 51-27N, 经度: 3-36E, 海拔: 10米

当前天气观测

该预报发布于37分钟前的00:25 UTC
风速17节,风向南转南东
温度 7°C
湿度 93%
气压 996 hPa
能见度10公里或以上

METAR: EHFS 140025Z AUTO 15017KT 9999 NSC 07/06 Q0996 W///H///

时间: 02:02 (01:02 UTC)


TAF: 丢失

超过4000个机场的气象观测和天气预报(METAR&TAF报告)。

可查询的气象台以黄色和红色小点在地图上表示。

将鼠标移到小点上方,可查看气象台名称。

然后点击查看天气观测和预报。

如需切换地图:点击带黑十字的绿色按钮放大地图;点击带横线的绿色按钮缩小地图;或者点击绿色箭头查看邻近地区的地图。


METAR-TAF: